createdAt,value
2018-10-21T00:10:13.272Z,9.67
2018-10-21T00:21:15.640Z,9.75
2018-10-21T00:32:16.519Z,10.01
2018-10-21T00:43:17.514Z,10.18
2018-10-21T00:54:19.095Z,10.22
2018-10-21T01:05:21.150Z,10.22
2018-10-21T01:16:22.669Z,10.25
2018-10-21T01:27:25.249Z,10.22
2018-10-21T01:38:27.060Z,10.03
2018-10-21T01:49:27.072Z,10.11
2018-10-21T02:00:29.081Z,10.88
2018-10-21T02:11:32.521Z,11.31
2018-10-21T02:22:35.184Z,11.24
2018-10-21T02:33:37.165Z,11.14
2018-10-21T02:44:39.862Z,11.05
2018-10-21T02:55:42.654Z,11.17
2018-10-21T03:06:44.633Z,11.10
2018-10-21T03:17:46.285Z,10.99
2018-10-21T03:28:48.174Z,11.13
2018-10-21T03:39:49.405Z,10.95
2018-10-21T03:50:51.091Z,10.80
2018-10-21T04:01:52.005Z,10.67
2018-10-21T04:12:55.025Z,10.66
2018-10-21T04:23:57.223Z,10.66
2018-10-21T04:34:59.989Z,10.47
2018-10-21T04:46:02.747Z,10.58
2018-10-21T04:57:05.800Z,10.43
2018-10-21T05:08:09.121Z,10.29
2018-10-21T05:19:12.075Z,10.40
2018-10-21T05:30:12.890Z,10.10
2018-10-21T05:41:14.875Z,10.21
2018-10-21T05:52:16.085Z,10.25
2018-10-21T06:03:17.190Z,10.28
2018-10-21T06:14:19.631Z,10.28
2018-10-21T06:25:21.135Z,10.65
2018-10-21T06:36:23.708Z,10.73
2018-10-21T06:47:25.107Z,10.56
2018-10-21T06:58:25.745Z,10.49
2018-10-21T07:09:27.799Z,10.23
2018-10-21T07:20:23.193Z,10.49
2018-10-21T07:31:23.654Z,10.43
2018-10-21T07:42:09.445Z,10.98
2018-10-21T07:53:00.143Z,10.96
2018-10-21T08:03:54.575Z,11.61
2018-10-21T08:14:53.776Z,12.16
2018-10-21T08:25:49.724Z,12.37
2018-10-21T08:36:47.577Z,12.34
2018-10-21T08:47:46.122Z,12.63
2018-10-21T08:58:45.154Z,12.74
2018-10-21T09:09:40.512Z,13.10
2018-10-21T09:20:31.450Z,13.15
2018-10-21T09:31:25.610Z,12.79
2018-10-21T09:42:21.754Z,13.00
2018-10-21T09:53:11.787Z,13.21
2018-10-21T10:04:11.382Z,12.88
2018-10-21T10:14:57.377Z,12.94
2018-10-21T10:25:46.977Z,13.22
2018-10-21T10:36:48.840Z,13.78
2018-10-21T10:47:50.986Z,14.10
2018-10-21T10:58:51.446Z,13.48
2018-10-21T11:09:46.459Z,13.33
2018-10-21T11:20:47.295Z,15.70
2018-10-21T11:31:41.966Z,13.98
2018-10-21T11:42:42.184Z,15.06
2018-10-21T11:53:39.568Z,15.20
2018-10-21T12:04:39.746Z,14.56
2018-10-21T12:15:36.865Z,14.03
2018-10-21T12:26:39.845Z,15.68
2018-10-21T12:37:31.907Z,13.89
2018-10-21T12:48:19.718Z,13.92
2018-10-21T12:59:15.570Z,14.35
2018-10-21T13:10:17.051Z,15.38
2018-10-21T13:21:13.570Z,14.13
2018-10-21T13:32:16.186Z,15.03
2018-10-21T13:43:16.493Z,14.60
2018-10-21T13:54:10.507Z,13.71
2018-10-21T14:05:03.455Z,13.63
2018-10-21T14:15:57.161Z,13.38
2018-10-21T14:26:58.149Z,13.45
2018-10-21T14:37:59.368Z,13.15
2018-10-21T14:48:55.444Z,13.37
2018-10-21T14:59:46.668Z,13.07
2018-10-21T15:10:37.812Z,12.86
2018-10-21T15:21:26.664Z,12.55
2018-10-21T15:32:25.263Z,12.24
2018-10-21T15:43:19.557Z,12.06
2018-10-21T15:54:18.097Z,11.87
2018-10-21T16:05:18.938Z,11.67
2018-10-21T16:16:18.022Z,11.59
2018-10-21T16:27:14.430Z,10.83
2018-10-21T16:38:10.744Z,10.11
2018-10-21T16:49:09.171Z,9.56
2018-10-21T17:00:10.164Z,9.05
2018-10-21T17:11:10.904Z,8.97
2018-10-21T17:22:12.831Z,8.39
2018-10-21T17:33:11.504Z,8.29
2018-10-21T17:44:06.032Z,7.91
2018-10-21T17:55:06.442Z,7.99
2018-10-21T18:06:08.991Z,7.70
2018-10-21T18:17:10.041Z,7.42
2018-10-21T18:28:12.108Z,7.31
2018-10-21T18:39:13.463Z,7.24
2018-10-21T18:50:14.806Z,7.01
2018-10-21T19:01:17.162Z,7.01
2018-10-21T19:12:19.863Z,6.81
2018-10-21T19:23:21.503Z,6.54
2018-10-21T19:34:23.600Z,6.33
2018-10-21T19:45:25.843Z,6.70
2018-10-21T19:56:28.236Z,6.81
2018-10-21T20:07:26.445Z,7.05
2018-10-21T20:18:27.025Z,7.26
2018-10-21T20:29:27.660Z,7.03
2018-10-21T20:40:27.191Z,7.27
2018-10-21T20:51:27.830Z,7.12
2018-10-21T21:02:23.830Z,7.01
2018-10-21T21:13:25.254Z,6.91
2018-10-21T21:24:26.852Z,7.12
2018-10-21T21:35:24.024Z,7.45
2018-10-21T21:46:25.349Z,7.21
2018-10-21T21:57:27.101Z,7.09
2018-10-21T22:08:27.437Z,7.27
2018-10-21T22:19:27.319Z,7.37
2018-10-21T22:30:28.326Z,7.24
2018-10-21T22:41:28.839Z,7.37
2018-10-21T22:52:29.072Z,7.70
2018-10-21T23:03:30.028Z,7.57
2018-10-21T23:14:32.099Z,7.63
2018-10-21T23:25:33.522Z,7.59
2018-10-21T23:36:35.171Z,7.76
2018-10-21T23:47:38.150Z,7.94
2018-10-21T23:58:40.658Z,7.79
